Time;durP1;ratioP1;P1;durP2;ratioP2;P2;SDS_P1;SDS_P2;PMS_P1;PMS_P2;Temp;Humidity;BMP_temperature;BMP_pressure;BME280_temperature;BME280_humidity;BME280_pressure;Samples;Min_cycle;Max_cycle;Signal;HPM_P1;HPM_P2
2021/07/19 00:00:13;;;;;;;6.35;3.98;;;;;;;17.87;69.00;100227.27;2194802;79;21108;-78
2021/07/19 00:03:15;;;;;;;9.00;4.28;;;;;;;17.85;69.12;100222.12;2186865;79;21042;-74
2021/07/19 00:06:16;;;;;;;4.85;3.90;;;;;;;17.82;69.28;100227.92;2200145;79;21056;-75
2021/07/19 00:09:18;;;;;;;10.53;4.15;;;;;;;17.80;69.21;100229.98;2189121;79;21645;-73
2021/07/19 00:12:20;;;;;;;5.92;4.37;;;;;;;17.74;69.21;100233.48;2194339;79;21032;-74
2021/07/19 00:15:26;;;;;;;13.60;4.30;;;;;;;17.66;69.18;100233.70;2190855;79;21009;-73
2021/07/19 00:18:28;;;;;;;16.97;4.22;;;;;;;17.58;69.33;100229.91;2194698;79;21051;-75
2021/07/19 00:21:29;;;;;;;11.35;4.42;;;;;;;17.53;69.40;100227.02;2199791;79;21465;-76
2021/07/19 00:24:31;;;;;;;7.08;4.40;;;;;;;17.44;69.36;100223.22;2182623;79;21583;-76
2021/07/19 00:27:32;;;;;;;12.53;4.40;;;;;;;17.41;69.55;100230.34;2194922;79;21078;-77
2021/07/19 00:30:37;;;;;;;6.65;4.62;;;;;;;17.32;69.43;100224.89;2189764;79;21012;-79
2021/07/19 00:33:39;;;;;;;7.80;4.25;;;;;;;17.20;69.69;100226.53;2191758;79;21103;-78
2021/07/19 00:36:42;;;;;;;5.95;4.60;;;;;;;17.13;70.01;100225.73;2194730;79;21031;-75
2021/07/19 00:39:44;;;;;;;6.80;4.10;;;;;;;17.07;70.11;100232.75;2190741;79;21071;-76
2021/07/19 00:42:46;;;;;;;8.70;4.03;;;;;;;17.01;70.35;100233.05;2195972;79;21121;-75
2021/07/19 00:45:48;;;;;;;11.63;5.08;;;;;;;16.94;70.35;100234.89;2199304;79;21106;-75
2021/07/19 00:48:50;;;;;;;7.62;4.47;;;;;;;16.91;70.52;100235.31;2204496;79;21014;-76
2021/07/19 00:51:52;;;;;;;10.28;4.58;;;;;;;16.85;70.49;100229.95;2197352;79;21008;-78
2021/07/19 00:54:54;;;;;;;11.88;4.30;;;;;;;16.76;70.54;100230.15;2197860;79;21668;-76
2021/07/19 00:57:59;;;;;;;9.35;4.05;;;;;;;16.65;70.48;100235.26;2186304;79;21129;-77
2021/07/19 01:01:02;;;;;;;10.78;4.22;;;;;;;16.58;70.84;100232.55;2193937;79;21076;-79
2021/07/19 01:04:05;;;;;;;6.53;4.37;;;;;;;16.57;71.01;100240.28;2196847;79;21080;-79
2021/07/19 01:07:10;;;;;;;14.20;4.37;;;;;;;16.57;70.92;100245.64;2199173;79;21112;-77
2021/07/19 01:10:17;;;;;;;10.48;4.42;;;;;;;16.50;70.97;100248.31;2197425;79;22415;-76
2021/07/19 01:13:19;;;;;;;7.78;4.53;;;;;;;16.43;70.99;100255.49;2202030;79;21577;-80
2021/07/19 01:16:23;;;;;;;9.10;4.65;;;;;;;16.41;71.13;100258.88;2188850;79;21057;-76
2021/07/19 01:19:29;;;;;;;11.03;4.75;;;;;;;16.38;71.38;100246.41;2198282;79;21108;-79
2021/07/19 01:23:15;;;;;;;9.48;5.35;;;;;;;16.34;71.16;100254.03;2195033;79;21018;-76
2021/07/19 01:27:15;;;;;;;7.03;3.52;;;;;;;16.30;71.50;100248.75;2203537;79;21073;-76
2021/07/19 01:30:17;;;;;;;7.62;4.97;;;;;;;16.29;71.58;100258.64;2192794;79;21071;-77
2021/07/19 01:33:22;;;;;;;10.43;4.37;;;;;;;16.22;71.62;100257.80;2198011;79;21022;-75
2021/07/19 01:36:33;;;;;;;7.85;4.35;;;;;;;16.18;71.41;100257.87;2199317;79;21116;-76
2021/07/19 01:39:41;;;;;;;9.28;4.90;;;;;;;16.13;71.56;100268.34;2170855;79;21066;-76
2021/07/19 01:42:45;;;;;;;11.63;6.08;;;;;;;16.11;71.93;100269.08;2196085;78;21643;-76
2021/07/19 01:45:49;;;;;;;10.55;6.33;;;;;;;16.06;72.21;100275.02;2185712;79;21628;-76
2021/07/19 01:48:53;;;;;;;12.60;5.42;;;;;;;16.05;72.61;100269.85;2193812;79;21073;-76
2021/07/19 01:51:56;;;;;;;9.85;5.10;;;;;;;15.99;72.85;100273.33;2193119;79;21051;-75
2021/07/19 01:55:01;;;;;;;11.00;5.50;;;;;;;15.95;72.63;100266.73;2193363;79;21101;-76
2021/07/19 01:58:05;;;;;;;15.23;4.90;;;;;;;15.85;72.58;100269.27;2197309;79;21402;-79
2021/07/19 02:01:18;;;;;;;8.70;5.65;;;;;;;15.80;72.37;100262.86;2182856;79;21189;-76
2021/07/19 02:04:22;;;;;;;11.63;5.53;;;;;;;15.74;72.70;100272.50;2171518;80;21043;-76
2021/07/19 02:07:25;;;;;;;8.05;4.83;;;;;;;15.67;72.40;100273.74;2169479;80;21074;-75
2021/07/19 02:10:30;;;;;;;11.30;5.75;;;;;;;15.64;72.41;100275.47;2174049;80;21090;-75
2021/07/19 02:13:36;;;;;;;10.58;4.92;;;;;;;15.61;72.49;100277.20;2160689;80;21112;-77
2021/07/19 02:16:43;;;;;;;10.60;4.70;;;;;;;15.59;72.49;100265.87;2168242;80;21143;-77
2021/07/19 02:19:48;;;;;;;14.73;5.60;;;;;;;15.54;72.39;100277.69;2163209;80;21562;-76
2021/07/19 02:22:54;;;;;;;8.70;5.67;;;;;;;15.51;72.77;100282.58;2161217;80;21005;-76
2021/07/19 02:26:06;;;;;;;7.62;4.45;;;;;;;15.48;72.99;100278.44;2112911;80;21053;-76
2021/07/19 02:29:10;;;;;;;8.25;4.45;;;;;;;15.49;72.98;100276.62;2177745;80;21080;-77
2021/07/19 02:32:16;;;;;;;15.05;5.55;;;;;;;15.47;72.97;100272.79;2170843;80;21010;-77
2021/07/19 02:35:19;;;;;;;10.18;4.45;;;;;;;15.47;73.48;100267.44;2171015;79;21525;-76
2021/07/19 02:38:25;;;;;;;10.13;4.97;;;;;;;15.44;73.37;100267.83;2156165;80;21056;-76
2021/07/19 02:41:35;;;;;;;6.65;5.25;;;;;;;15.36;73.41;100280.01;2162223;80;21047;-76
2021/07/19 02:44:38;;;;;;;9.25;5.47;;;;;;;15.34;74.13;100273.50;2163792;80;21057;-75
2021/07/19 02:47:49;;;;;;;9.10;4.95;;;;;;;15.33;74.24;100276.39;2150501;80;21032;-75
2021/07/19 02:50:56;;;;;;;12.45;6.28;;;;;;;15.31;74.39;100282.43;2156342;80;21124;-74
2021/07/19 02:54:00;;;;;;;9.35;5.08;;;;;;;15.32;74.54;100282.77;2178758;80;21101;-76
2021/07/19 02:57:03;;;;;;;9.70;5.42;;;;;;;15.39;75.45;100287.64;2161358;80;21053;-76
2021/07/19 03:00:13;;;;;;;8.40;5.42;;;;;;;15.53;75.40;100276.02;2171034;80;21066;-71
2021/07/19 03:03:22;;;;;;;8.80;5.42;;;;;;;15.65;75.08;100278.48;2123316;81;21053;-71
2021/07/19 03:06:36;;;;;;;5.67;4.55;;;;;;;15.80;74.62;100282.92;2091915;83;21213;-74
2021/07/19 03:09:41;;;;;;;7.58;4.40;;;;;;;15.76;74.03;100287.81;2091841;83;21912;-71
2021/07/19 03:12:44;;;;;;;5.92;4.10;;;;;;;15.71;73.89;100283.59;2088677;83;21816;-70
2021/07/19 03:15:48;;;;;;;10.82;5.05;;;;;;;15.63;73.63;100273.83;2070206;83;21100;-74
2021/07/19 03:18:54;;;;;;;6.95;4.50;;;;;;;15.53;73.25;100282.70;2093294;83;21535;-72
2021/07/19 03:22:00;;;;;;;7.80;5.15;;;;;;;15.45;73.52;100277.50;2088793;83;21159;-76
2021/07/19 03:25:26;;;;;;;6.78;5.25;;;;;;;15.46;73.72;100277.83;2096407;83;21215;-72
2021/07/19 03:28:29;;;;;;;7.58;4.92;;;;;;;15.47;73.85;100284.30;2073365;83;21056;-71
2021/07/19 03:31:33;;;;;;;6.42;4.40;;;;;;;15.53;74.11;100283.22;2078653;83;21516;-72
2021/07/19 03:34:37;;;;;;;5.72;4.50;;;;;;;15.49;73.77;100285.46;2094394;83;21023;-71
2021/07/19 03:37:40;;;;;;;7.42;4.58;;;;;;;15.43;73.66;100287.06;2087769;83;21073;-75
2021/07/19 03:40:44;;;;;;;5.10;4.12;;;;;;;15.43;74.02;100279.56;2096847;83;21073;-71
2021/07/19 03:43:48;;;;;;;7.67;4.95;;;;;;;15.51;74.24;100274.55;2083780;83;21114;-75
2021/07/19 03:46:50;;;;;;;13.50;5.75;;;;;;;15.73;74.40;100275.35;2086350;83;21970;-73
2021/07/19 03:49:54;;;;;;;7.42;4.90;;;;;;;15.94;74.34;100268.59;2087292;83;21401;-72
2021/07/19 03:52:57;;;;;;;9.78;5.35;;;;;;;16.17;74.18;100270.14;2095602;83;21151;-77
2021/07/19 03:56:01;;;;;;;7.85;4.35;;;;;;;16.40;74.18;100266.61;2088775;83;21124;-78
2021/07/19 03:59:05;;;;;;;10.08;6.12;;;;;;;16.58;73.85;100257.51;2090663;83;21027;-71
2021/07/19 04:02:14;;;;;;;8.25;5.08;;;;;;;16.86;73.91;100253.03;2070185;83;22362;-74
2021/07/19 04:05:21;;;;;;;6.62;5.12;;;;;;;17.16;73.83;100254.28;2091240;83;21878;-71
2021/07/19 04:08:29;;;;;;;8.65;5.12;;;;;;;17.53;73.61;100264.58;2094480;83;21564;-73
2021/07/19 04:11:32;;;;;;;7.37;4.83;;;;;;;17.80;73.21;100261.36;2096374;83;21100;-76
2021/07/19 04:14:36;;;;;;;10.68;5.28;;;;;;;18.13;72.95;100266.60;2097733;83;21043;-77
2021/07/19 04:17:38;;;;;;;7.47;4.85;;;;;;;18.52;72.69;100258.05;2093979;83;21113;-72
2021/07/19 04:20:44;;;;;;;14.15;6.03;;;;;;;18.87;72.12;100259.03;2099427;83;22313;-72
2021/07/19 04:23:46;;;;;;;9.28;5.62;;;;;;;19.19;71.84;100259.27;2091987;83;20987;-71
2021/07/19 04:26:56;;;;;;;10.05;5.60;;;;;;;19.59;71.55;100264.28;2097082;83;21403;-76
2021/07/19 04:29:57;;;;;;;7.42;5.53;;;;;;;19.81;70.75;100256.63;2093363;83;21098;-74
2021/07/19 04:32:59;;;;;;;7.85;5.78;;;;;;;20.00;70.14;100266.08;2098028;83;21089;-73
2021/07/19 04:36:01;;;;;;;8.95;5.55;;;;;;;20.23;70.17;100264.84;2100832;83;21109;-72
2021/07/19 04:39:03;;;;;;;10.40;6.50;;;;;;;20.45;69.27;100261.14;2099146;83;21094;-72
2021/07/19 04:42:08;;;;;;;10.03;7.03;;;;;;;20.62;69.05;100268.09;2072288;83;21594;-74
2021/07/19 04:45:11;;;;;;;8.38;5.87;;;;;;;20.76;68.56;100271.42;2077637;83;21118;-75
2021/07/19 04:48:17;;;;;;;12.78;6.90;;;;;;;20.94;68.23;100269.98;2087512;83;21062;-72
2021/07/19 04:51:19;;;;;;;8.15;6.50;;;;;;;21.15;68.11;100274.03;2093930;83;21130;-72
2021/07/19 04:54:28;;;;;;;11.80;6.80;;;;;;;21.45;67.95;100270.43;2099535;83;21115;-74
2021/07/19 04:57:32;;;;;;;13.62;6.55;;;;;;;21.74;67.58;100268.67;2087099;83;21558;-73
2021/07/19 05:00:36;;;;;;;11.83;7.10;;;;;;;21.96;66.62;100274.25;2081796;83;21292;-71
2021/07/19 05:03:40;;;;;;;11.68;6.80;;;;;;;22.16;66.36;100275.23;2089056;83;21134;-74
2021/07/19 05:06:46;;;;;;;12.68;6.87;;;;;;;22.28;66.16;100265.77;2103127;83;21118;-73
2021/07/19 05:09:50;;;;;;;9.85;7.75;;;;;;;22.52;65.99;100266.48;2167313;80;21093;-77
2021/07/19 05:12:52;;;;;;;10.78;7.17;;;;;;;22.77;65.35;100258.02;2162441;80;21044;-74
2021/07/19 05:15:56;;;;;;;11.45;7.35;;;;;;;23.00;65.07;100253.86;2171373;80;20983;-72
2021/07/19 05:18:58;;;;;;;11.65;8.10;;;;;;;23.34;64.46;100255.71;2174156;80;21077;-73
2021/07/19 05:21:59;;;;;;;11.20;8.33;;;;;;;23.53;64.19;100259.80;2168729;80;21058;-73
2021/07/19 05:25:01;;;;;;;19.12;9.30;;;;;;;23.92;63.61;100263.87;2171420;80;21083;-71
2021/07/19 05:28:07;;;;;;;12.03;8.10;;;;;;;24.22;62.45;100263.98;2166019;79;21091;-72
2021/07/19 05:31:08;;;;;;;14.53;8.30;;;;;;;24.33;62.00;100256.25;2176482;80;21066;-73
2021/07/19 05:34:12;;;;;;;15.53;8.43;;;;;;;24.40;61.71;100252.78;2151612;79;21060;-73
2021/07/19 05:37:13;;;;;;;13.70;8.65;;;;;;;24.59;61.60;100254.11;2158937;80;21040;-75
2021/07/19 05:40:17;;;;;;;13.22;8.43;;;;;;;24.85;61.00;100252.98;2155700;80;21076;-72
2021/07/19 05:43:19;;;;;;;14.90;8.68;;;;;;;24.93;60.31;100258.48;2158769;80;21081;-73
2021/07/19 05:46:20;;;;;;;16.52;8.73;;;;;;;25.07;60.15;100258.88;2166493;80;21085;-73
2021/07/19 05:49:22;;;;;;;9.53;8.28;;;;;;;25.10;59.55;100267.31;2159800;80;21358;-73
2021/07/19 05:52:23;;;;;;;15.55;8.73;;;;;;;24.77;59.20;100277.33;2164434;80;21041;-73
2021/07/19 05:55:25;;;;;;;13.18;8.95;;;;;;;24.64;59.33;100277.77;2161824;80;21002;-74
2021/07/19 05:58:30;;;;;;;15.68;8.33;;;;;;;24.61;59.51;100272.85;2167894;80;20996;-73
2021/07/19 06:01:30;;;;;;;18.23;8.45;;;;;;;25.07;59.63;100269.19;2164464;80;21574;-73
2021/07/19 06:04:32;;;;;;;14.85;8.28;;;;;;;25.49;58.87;100279.30;2153800;80;21643;-73
2021/07/19 06:07:34;;;;;;;10.72;8.20;;;;;;;25.57;58.31;100275.29;2164226;80;21015;-73
2021/07/19 06:10:36;;;;;;;10.82;8.28;;;;;;;25.81;57.96;100276.49;2175863;80;21034;-74
2021/07/19 06:13:40;;;;;;;13.13;8.38;;;;;;;26.03;57.88;100276.91;2172250;80;21106;-73
2021/07/19 06:16:41;;;;;;;14.50;9.00;;;;;;;26.02;56.92;100277.45;2159369;80;21598;-74
2021/07/19 06:19:42;;;;;;;11.73;8.00;;;;;;;25.88;56.99;100274.95;2163862;79;21058;-73
2021/07/19 06:22:47;;;;;;;12.55;9.15;;;;;;;25.58;56.53;100276.37;2168100;80;21043;-73
2021/07/19 06:25:51;;;;;;;9.48;7.75;;;;;;;25.27;56.93;100282.95;2171001;80;21316;-75
2021/07/19 06:28:52;;;;;;;14.95;9.33;;;;;;;24.92;56.85;100279.90;2163037;80;21129;-74
2021/07/19 06:31:54;;;;;;;12.50;8.55;;;;;;;24.55;57.03;100288.25;2169421;80;21133;-73
2021/07/19 06:34:55;;;;;;;10.90;7.70;;;;;;;24.22;57.03;100286.48;2156103;80;21049;-73
2021/07/19 06:37:57;;;;;;;13.75;8.75;;;;;;;23.93;57.13;100285.83;2181307;80;21043;-73
2021/07/19 06:40:59;;;;;;;11.65;8.23;;;;;;;23.73;57.38;100281.50;2168860;80;21516;-74
2021/07/19 06:44:00;;;;;;;11.40;7.67;;;;;;;23.64;57.73;100281.08;2168289;80;21575;-73
2021/07/19 06:47:02;;;;;;;12.40;8.18;;;;;;;23.51;57.62;100280.91;2167326;80;21115;-73
2021/07/19 06:50:06;;;;;;;10.13;7.10;;;;;;;23.49;57.97;100284.39;2162640;80;21033;-82
2021/07/19 06:53:08;;;;;;;11.30;6.92;;;;;;;23.39;57.61;100281.52;2168975;80;21094;-74
2021/07/19 06:56:11;;;;;;;9.50;6.67;;;;;;;23.31;57.52;100285.98;2163027;80;21050;-82
2021/07/19 06:59:13;;;;;;;16.10;7.62;;;;;;;23.30;57.28;100283.00;2163932;80;21054;-76
2021/07/19 07:02:15;;;;;;;10.28;6.87;;;;;;;23.38;57.25;100277.18;2169277;80;20988;-76
2021/07/19 07:05:16;;;;;;;12.55;7.17;;;;;;;23.59;57.29;100279.64;2167443;80;21113;-74
2021/07/19 07:08:18;;;;;;;11.25;6.58;;;;;;;24.29;56.98;100282.22;2162063;80;21006;-77
2021/07/19 07:11:21;;;;;;;12.13;7.12;;;;;;;25.01;55.87;100272.40;2161844;80;21510;-76
2021/07/19 07:14:23;;;;;;;9.33;6.55;;;;;;;25.56;55.32;100277.70;2141947;80;21049;-72
2021/07/19 07:17:24;;;;;;;10.35;6.05;;;;;;;26.01;54.48;100276.34;2164753;80;21091;-72
2021/07/19 07:20:25;;;;;;;11.10;6.45;;;;;;;26.52;54.13;100276.00;2158936;80;21106;-72
2021/07/19 07:23:27;;;;;;;11.08;6.05;;;;;;;27.03;53.27;100273.88;2149546;80;21156;-72
2021/07/19 07:26:28;;;;;;;8.03;5.53;;;;;;;27.45;52.03;100270.91;2153852;80;21599;-74
2021/07/19 07:29:30;;;;;;;8.35;4.95;;;;;;;27.78;50.80;100266.45;2159812;80;21113;-73
2021/07/19 07:32:32;;;;;;;13.85;6.37;;;;;;;28.13;50.37;100270.45;2176052;79;21577;-73
2021/07/19 07:35:40;;;;;;;12.30;6.08;;;;;;;28.27;49.73;100267.92;2175491;80;20982;-72
2021/07/19 07:38:37;;;;;;;9.73;6.60;;;;;;;28.77;49.34;100261.08;2170508;79;21639;-72
2021/07/19 07:41:39;;;;;;;13.05;6.35;;;;;;;29.27;48.42;100257.69;2167496;80;21021;-72
2021/07/19 07:44:41;;;;;;;11.97;5.72;;;;;;;29.08;47.66;100263.59;2168047;80;21428;-72
2021/07/19 07:47:44;;;;;;;9.90;6.08;;;;;;;28.77;47.48;100262.44;2164569;80;21222;-73
2021/07/19 07:50:45;;;;;;;16.90;6.55;;;;;;;28.49;47.27;100255.81;2165940;80;21053;-74
2021/07/19 07:53:48;;;;;;;10.90;6.37;;;;;;;28.05;47.24;100254.66;2170131;80;21032;-75
2021/07/19 07:56:49;;;;;;;8.13;6.40;;;;;;;27.61;47.21;100247.14;2163245;80;21081;-73
2021/07/19 07:59:51;;;;;;;8.55;6.33;;;;;;;27.26;47.74;100246.69;2155186;80;21082;-72
2021/07/19 08:02:52;;;;;;;9.08;6.30;;;;;;;27.22;47.71;100251.03;2161591;80;21076;-73
2021/07/19 08:05:54;;;;;;;11.03;5.97;;;;;;;27.26;48.09;100247.50;2169743;80;20976;-73
2021/07/19 08:08:55;;;;;;;12.20;6.30;;;;;;;27.34;47.89;100241.20;2176796;80;21131;-71
2021/07/19 08:11:58;;;;;;;12.00;6.72;;;;;;;27.24;47.82;100240.69;2132749;80;21530;-73
2021/07/19 08:15:03;;;;;;;10.03;6.30;;;;;;;27.53;47.62;100236.00;2174851;80;21121;-73
2021/07/19 08:18:04;;;;;;;10.55;6.70;;;;;;;28.00;48.08;100236.14;2172698;80;21114;-73
2021/07/19 08:21:05;;;;;;;10.05;6.40;;;;;;;28.46;47.54;100238.08;2171171;80;20994;-73
2021/07/19 08:24:08;;;;;;;9.68;6.78;;;;;;;28.70;46.89;100233.30;2161996;80;21050;-71
2021/07/19 08:27:10;;;;;;;8.50;6.45;;;;;;;28.54;46.71;100240.77;2166745;80;21121;-71
2021/07/19 08:30:14;;;;;;;12.10;6.67;;;;;;;28.35;46.40;100245.52;2149164;80;21552;-72
2021/07/19 08:33:15;;;;;;;15.45;7.80;;;;;;;27.86;46.75;100246.28;2166961;80;20959;-72
2021/07/19 08:36:17;;;;;;;12.10;7.17;;;;;;;27.26;46.44;100244.77;2168046;79;22529;-74
2021/07/19 08:39:19;;;;;;;11.85;8.10;;;;;;;26.58;47.30;100251.81;2158835;80;21166;-71
2021/07/19 08:42:20;;;;;;;9.85;7.20;;;;;;;26.06;48.04;100258.70;2166163;80;21094;-75
2021/07/19 08:45:23;;;;;;;10.23;7.58;;;;;;;25.59;48.92;100260.87;2164113;80;21112;-73
2021/07/19 08:48:24;;;;;;;30.57;8.38;;;;;;;25.24;49.29;100263.65;2172763;80;21112;-71
2021/07/19 08:51:27;;;;;;;11.88;7.47;;;;;;;24.84;49.84;100267.64;2176896;79;21015;-74
2021/07/19 08:54:34;;;;;;;16.55;8.45;;;;;;;24.57;50.46;100268.45;2162622;80;21560;-72
2021/07/19 08:57:44;;;;;;;13.40;9.63;;;;;;;24.30;51.26;100270.28;2177190;80;21038;-72
2021/07/19 09:00:43;;;;;;;10.65;8.93;;;;;;;24.21;52.10;100267.75;2150706;80;21042;-77
2021/07/19 09:03:47;;;;;;;12.50;9.18;;;;;;;24.60;52.98;100265.22;2170827;79;20998;-72
2021/07/19 09:06:51;;;;;;;18.42;9.25;;;;;;;24.89;52.10;100260.06;2170225;79;21052;-74
2021/07/19 09:09:53;;;;;;;15.65;10.20;;;;;;;24.76;52.18;100257.25;2164029;80;21050;-73
2021/07/19 09:12:59;;;;;;;16.77;9.95;;;;;;;24.56;52.79;100255.97;2171959;80;21486;-73
2021/07/19 09:15:59;;;;;;;12.98;9.45;;;;;;;24.39;53.05;100264.17;2174270;80;21050;-74
2021/07/19 09:19:13;;;;;;;13.60;9.80;;;;;;;24.23;53.46;100260.19;2169093;80;21107;-73
2021/07/19 09:22:33;;;;;;;17.60;9.68;;;;;;;24.28;53.81;100252.94;2171843;79;21389;-74
2021/07/19 09:25:35;;;;;;;15.33;10.53;;;;;;;24.71;53.90;100254.48;2157958;80;21111;-74
2021/07/19 09:28:37;;;;;;;15.60;10.40;;;;;;;25.06;53.67;100252.63;2166753;79;21061;-72
2021/07/19 09:31:42;;;;;;;11.68;9.73;;;;;;;25.43;53.45;100241.79;2148187;80;21037;-72
2021/07/19 09:34:44;;;;;;;14.03;10.72;;;;;;;25.94;52.96;100244.80;2168735;80;21129;-75
2021/07/19 09:37:46;;;;;;;16.00;9.95;;;;;;;26.30;52.46;100250.36;2168800;80;21691;-74
2021/07/19 09:40:52;;;;;;;14.60;11.65;;;;;;;26.19;52.66;100251.42;2157141;80;21103;-76
2021/07/19 09:43:53;;;;;;;14.80;10.50;;;;;;;26.54;52.67;100256.70;2178154;80;21107;-74
2021/07/19 09:47:05;;;;;;;16.75;10.85;;;;;;;26.50;51.36;100258.30;2164617;80;21011;-73
2021/07/19 09:50:18;;;;;;;13.40;10.32;;;;;;;26.15;51.61;100258.45;2170205;79;20999;-73
2021/07/19 09:53:41;;;;;;;13.65;10.08;;;;;;;25.67;51.39;100263.10;2183488;79;21037;-73
2021/07/19 09:56:43;;;;;;;17.35;11.00;;;;;;;25.38;52.08;100262.12;2163939;80;21104;-76
2021/07/19 09:59:55;;;;;;;16.12;10.15;;;;;;;25.16;52.53;100268.20;2166091;79;21045;-76
2021/07/19 10:02:57;;;;;;;16.50;9.88;;;;;;;25.15;52.98;100259.79;2165776;80;21550;-73
2021/07/19 10:06:07;;;;;;;13.43;8.63;;;;;;;25.24;52.82;100271.25;2169478;79;20960;-74
2021/07/19 10:09:13;;;;;;;;;;;;;;;24.99;52.72;100274.55;2160739;79;21035;-71
2021/07/19 10:12:16;;;;;;;13.10;9.80;;;;;;;24.74;53.44;100267.53;2120721;81;20572;-72
2021/07/19 10:15:18;;;;;;;15.88;8.80;;;;;;;24.59;53.39;100269.56;2186968;79;21050;-72
2021/07/19 10:18:23;;;;;;;14.00;7.72;;;;;;;24.14;53.60;100275.54;2178909;79;21110;-74
2021/07/19 10:21:30;;;;;;;13.00;7.53;;;;;;;23.84;54.59;100277.86;2152181;79;21129;-74
2021/07/19 10:24:32;;;;;;;12.73;7.62;;;;;;;23.69;55.15;100268.42;2167719;79;21113;-76
2021/07/19 10:27:37;;;;;;;13.03;7.87;;;;;;;23.76;54.90;100266.09;2171868;79;21630;-76
2021/07/19 10:30:40;;;;;;;8.73;6.72;;;;;;;23.70;55.08;100270.59;2161805;79;20995;-74
2021/07/19 10:33:42;;;;;;;12.80;7.60;;;;;;;23.50;55.33;100273.29;2170547;80;21046;-73
2021/07/19 10:37:00;;;;;;;13.08;7.30;;;;;;;23.08;55.62;100280.20;2171197;79;21058;-78
2021/07/19 10:40:06;;;;;;;8.68;6.10;;;;;;;22.76;55.80;100284.78;2176143;80;21549;-76
2021/07/19 10:43:16;;;;;;;8.38;5.72;;;;;;;22.76;56.21;100292.36;2145182;80;21042;-72
2021/07/19 10:46:23;;;;;;;8.70;5.65;;;;;;;22.74;56.03;100291.77;2140923;81;21053;-74
2021/07/19 10:49:31;;;;;;;7.72;5.45;;;;;;;22.60;56.11;100289.08;2164977;80;21039;-75
2021/07/19 10:52:39;;;;;;;6.55;5.42;;;;;;;22.54;56.21;100298.16;2165186;79;21148;-74
2021/07/19 10:55:42;;;;;;;9.15;4.35;;;;;;;22.41;56.20;100296.55;2152500;80;21085;-73
2021/07/19 10:58:48;;;;;;;6.17;4.50;;;;;;;22.11;56.14;100304.31;2160174;80;21870;-74
2021/07/19 11:01:59;;;;;;;5.67;4.47;;;;;;;21.90;56.83;100306.27;2164632;80;21053;-78
2021/07/19 11:05:00;;;;;;;6.25;4.45;;;;;;;21.78;57.32;100304.94;2155765;80;21596;-78
2021/07/19 11:08:03;;;;;;;9.00;4.90;;;;;;;21.57;57.94;100312.27;2159957;80;21065;-78
2021/07/19 11:11:04;;;;;;;9.20;4.78;;;;;;;21.37;58.39;100304.02;2143474;80;21047;-73
2021/07/19 11:14:24;;;;;;;6.40;5.00;;;;;;;21.31;58.87;100308.12;2158668;80;20981;-75
2021/07/19 11:17:28;;;;;;;8.45;5.03;;;;;;;21.41;59.37;100298.42;2169346;80;21058;-73
2021/07/19 11:20:35;;;;;;;6.30;4.30;;;;;;;21.58;59.67;100299.08;2160053;80;21597;-75
2021/07/19 11:23:40;;;;;;;7.62;4.85;;;;;;;21.74;59.63;100299.73;2151307;80;21055;-74
2021/07/19 11:26:58;;;;;;;6.60;5.08;;;;;;;21.94;59.67;100304.22;2145107;80;21050;-74
2021/07/19 11:30:14;;;;;;;6.75;4.65;;;;;;;22.25;59.62;100296.80;2161305;80;21070;-73
2021/07/19 11:33:16;;;;;;;8.38;4.72;;;;;;;22.67;59.22;100293.00;2155690;80;21056;-73
2021/07/19 11:36:26;;;;;;;5.40;4.87;;;;;;;22.97;58.35;100279.21;2168268;80;21082;-76
2021/07/19 11:39:28;;;;;;;6.40;5.37;;;;;;;22.99;57.29;100274.38;2170435;80;21628;-72
2021/07/19 11:42:43;;;;;;;8.05;5.80;;;;;;;23.09;57.94;100277.78;2166053;79;20987;-74
2021/07/19 11:45:49;;;;;;;11.53;6.72;;;;;;;23.25;56.11;100270.20;2142821;80;21440;-74
2021/07/19 11:48:59;;;;;;;9.85;5.62;;;;;;;23.27;55.49;100272.95;2146790;80;21124;-80
2021/07/19 11:52:03;;;;;;;10.38;5.47;;;;;;;23.27;55.03;100271.59;2165989;80;21093;-71
2021/07/19 11:55:08;;;;;;;7.83;5.70;;;;;;;23.31;55.20;100262.44;2172026;80;21035;-74
2021/07/19 11:58:10;;;;;;;10.05;5.28;;;;;;;23.43;54.49;100265.08;2168385;80;21121;-70
2021/07/19 12:01:12;;;;;;;13.48;5.58;;;;;;;23.55;53.48;100267.69;2166415;80;21117;-74
2021/07/19 12:04:16;;;;;;;7.62;4.97;;;;;;;23.45;53.66;100262.41;2159847;80;21632;-71
2021/07/19 12:07:18;;;;;;;7.47;5.35;;;;;;;23.83;54.37;100264.85;2152328;80;21655;-72
2021/07/19 12:10:21;;;;;;;7.25;5.20;;;;;;;24.09;53.92;100259.75;2165638;80;21332;-78
2021/07/19 12:13:22;;;;;;;8.00;5.55;;;;;;;24.35;53.43;100252.18;2173231;80;21371;-73
2021/07/19 12:16:32;;;;;;;9.63;5.10;;;;;;;24.38;52.91;100249.50;2179396;79;21704;-72
2021/07/19 12:19:34;;;;;;;9.43;5.17;;;;;;;24.41;52.93;100248.17;2165521;79;21120;-73
2021/07/19 12:22:37;;;;;;;8.78;5.05;;;;;;;24.50;53.00;100246.16;2160918;80;21057;-74
2021/07/19 12:25:38;;;;;;;8.68;4.87;;;;;;;24.69;52.62;100245.77;2168357;80;21050;-72
2021/07/19 12:29:02;;;;;;;10.80;4.70;;;;;;;24.63;52.21;100243.55;2157793;80;21007;-73
2021/07/19 12:32:06;;;;;;;8.38;5.08;;;;;;;24.63;52.19;100242.73;2147048;80;21609;-73
2021/07/19 12:35:09;;;;;;;7.78;4.70;;;;;;;24.70;52.29;100240.65;2156987;80;21071;-72
2021/07/19 12:38:13;;;;;;;8.23;4.97;;;;;;;24.85;50.87;100223.67;2169025;80;21113;-76
2021/07/19 12:41:17;;;;;;;8.00;5.03;;;;;;;24.74;51.51;100225.48;2174045;80;21031;-77
2021/07/19 12:44:31;;;;;;;8.93;5.20;;;;;;;24.65;50.77;100221.61;2169200;80;21106;-82
2021/07/19 12:47:34;;;;;;;6.65;4.80;;;;;;;24.52;50.14;100217.41;2171941;80;21112;-76
2021/07/19 12:50:35;;;;;;;6.95;4.40;;;;;;;24.34;50.94;100223.44;2167447;80;21547;-75
2021/07/19 12:53:38;;;;;;;8.70;4.45;;;;;;;24.32;50.84;100221.52;2159939;80;21107;-72
2021/07/19 12:56:41;;;;;;;9.05;4.60;;;;;;;24.58;51.82;100212.30;2169128;80;21433;-77
2021/07/19 12:59:50;;;;;;;7.75;4.95;;;;;;;24.88;51.20;100217.19;2163640;80;21054;-73
2021/07/19 13:03:06;;;;;;;10.93;5.80;;;;;;;24.85;50.68;100218.25;2167895;80;21124;-73
2021/07/19 13:06:08;;;;;;;11.22;6.40;;;;;;;24.51;50.55;100232.86;2165836;80;21101;-76
2021/07/19 13:09:25;;;;;;;12.30;6.55;;;;;;;23.97;51.17;100232.78;2146179;80;21059;-80
2021/07/19 13:12:28;;;;;;;10.82;7.10;;;;;;;23.66;51.64;100229.66;2173166;80;21107;-75
2021/07/19 13:15:34;;;;;;;12.53;7.15;;;;;;;23.23;51.77;100237.98;2172558;80;21895;-75
2021/07/19 13:18:36;;;;;;;10.63;7.35;;;;;;;22.89;52.27;100234.94;2172000;79;21549;-73
2021/07/19 13:21:37;;;;;;;12.60;8.00;;;;;;;22.82;52.88;100236.46;2161036;80;21062;-73
2021/07/19 13:24:45;;;;;;;14.47;7.85;;;;;;;22.78;53.04;100235.33;2167202;79;21539;-73
2021/07/19 13:27:48;;;;;;;10.93;7.55;;;;;;;22.84;53.39;100232.99;2178774;80;21085;-73
2021/07/19 13:30:50;;;;;;;15.95;7.75;;;;;;;22.83;53.72;100229.47;2172952;80;21079;-73
2021/07/19 13:33:51;;;;;;;16.62;7.53;;;;;;;22.90;53.72;100230.66;2144496;81;21126;-73
2021/07/19 13:36:53;;;;;;;11.45;7.03;;;;;;;23.13;54.30;100228.34;2169461;80;21026;-73
2021/07/19 13:40:11;;;;;;;12.60;7.60;;;;;;;23.30;53.19;100226.16;2165458;80;21070;-78
2021/07/19 13:43:15;;;;;;;10.80;8.05;;;;;;;23.30;52.96;100231.57;2158309;80;21946;-73
2021/07/19 13:46:16;;;;;;;14.35;8.25;;;;;;;23.21;52.43;100222.52;2165851;80;21656;-79
2021/07/19 13:49:18;;;;;;;17.50;8.08;;;;;;;23.10;51.58;100213.14;2162572;80;21083;-72
2021/07/19 13:52:19;;;;;;;12.90;8.33;;;;;;;22.95;52.17;100233.48;2167680;80;21838;-79
2021/07/19 13:55:22;;;;;;;14.00;8.40;;;;;;;22.99;52.46;100231.09;2163580;80;21121;-72
2021/07/19 13:58:26;;;;;;;18.40;9.43;;;;;;;23.11;52.22;100227.76;2155655;80;21041;-73
2021/07/19 14:01:27;;;;;;;18.42;9.05;;;;;;;23.23;52.64;100229.86;2167287;79;21089;-73
2021/07/19 14:04:29;;;;;;;14.18;9.18;;;;;;;23.48;51.95;100229.42;2174472;80;20998;-72
2021/07/19 14:07:31;;;;;;;14.70;8.30;;;;;;;23.41;51.49;100234.17;2164259;80;21768;-73
2021/07/19 14:10:33;;;;;;;14.55;7.92;;;;;;;23.31;51.49;100239.97;2160713;80;21050;-74